Time;durP1;ratioP1;P1;durP2;ratioP2;P2;SDS_P1;SDS_P2;PMS_P1;PMS_P2;Temp;Humidity;BMP_temperature;BMP_pressure;BME280_temperature;BME280_humidity;BME280_pressure;Samples;Min_cycle;Max_cycle;Signal;HPM_P1;HPM_P2
2024/03/04 00:01:04;;;;;;;;;;;;;;;16.70;48.67;100770.75;5035374;28;1989;-57
2024/03/04 00:03:30;;;;;;;;;;;;;;;16.50;47.81;100776.25;5036516;28;1079;-58
2024/03/04 00:05:56;;;;;;;;;;;;;;;16.51;48.20;100772.38;5032778;28;2905;-56
2024/03/04 00:08:22;;;;;;;;;;;;;;;18.07;47.40;100769.06;5035922;28;1070;-57
2024/03/04 00:10:47;;;;;;;;;;;;;;;16.95;48.89;100774.63;5034539;28;1199;-58
2024/03/04 00:13:13;;;;;;;;;;;;;;;16.65;48.39;100768.03;5035745;28;1056;-58
2024/03/04 00:15:38;;;;;;;;;;;;;;;16.43;47.61;100777.31;5035695;28;1161;-58
2024/03/04 00:18:04;;;;;;;;;;;;;;;17.54;48.13;100766.81;5035886;28;1012;-59
2024/03/04 00:20:29;;;;;;;;;;;;;;;17.21;48.86;100769.91;5028084;28;1906;-58
2024/03/04 00:22:56;;;;;;;;;;;;;;;16.57;48.94;100763.88;5030639;28;1198;-58
2024/03/04 00:25:21;;;;;;;;;;;;;;;16.47;47.81;100755.66;5035870;28;874;-59
2024/03/04 00:27:53;;;;;;;;;;;;;;;16.24;47.21;100757.81;5034832;28;1903;-59
2024/03/04 00:30:19;;;;;;;;;;;;;;;17.60;48.22;100761.00;5035809;28;1128;-58
2024/03/04 00:32:44;;;;;;;;;;;;;;;16.85;49.19;100752.63;5035828;28;1194;-58
2024/03/04 00:35:10;;;;;;;;;;;;;;;16.43;48.43;100757.28;5036082;28;1110;-58
2024/03/04 00:37:39;;;;;;;;;;;;;;;16.30;47.59;100752.31;5035681;28;963;-58
2024/03/04 00:40:08;;;;;;;;;;;;;;;16.12;47.12;100748.16;5022485;28;1980;-58
2024/03/04 00:42:34;;;;;;;;;;;;;;;17.08;48.46;100745.75;5036401;28;1067;-59
2024/03/04 00:44:59;;;;;;;;;;;;;;;17.31;48.48;100743.53;5035538;28;1067;-58
2024/03/04 00:47:25;;;;;;;;;;;;;;;16.70;48.71;100740.53;5016000;28;1159;-59
2024/03/04 00:49:51;;;;;;;;;;;;;;;16.35;47.97;100753.16;5017769;28;954;-59
2024/03/04 00:52:17;;;;;;;;;;;;;;;17.29;48.66;100738.28;5036162;28;1148;-58
2024/03/04 00:54:43;;;;;;;;;;;;;;;17.01;48.82;100737.81;5036005;28;1095;-58
2024/03/04 00:57:09;;;;;;;;;;;;;;;16.48;48.81;100737.25;5035493;28;1140;-58
2024/03/04 00:59:34;;;;;;;;;;;;;;;16.87;48.87;100742.19;5035738;28;1062;-59
2024/03/04 01:02:00;;;;;;;;;;;;;;;18.33;46.81;100738.63;5035832;28;906;-58
2024/03/04 01:04:25;;;;;;;;;;;;;;;17.01;49.03;100743.31;5015901;28;1151;-58
2024/03/04 01:06:52;;;;;;;;;;;;;;;16.62;48.61;100741.13;5029348;28;1214;-57
2024/03/04 01:09:18;;;;;;;;;;;;;;;17.29;48.82;100741.03;5035965;28;1091;-58
2024/03/04 01:11:43;;;;;;;;;;;;;;;17.20;49.02;100731.72;5035739;28;1197;-59
2024/03/04 01:14:09;;;;;;;;;;;;;;;16.69;48.64;100743.56;5038560;28;1139;-59
2024/03/04 01:16:34;;;;;;;;;;;;;;;16.45;48.12;100740.56;5039744;28;1118;-57
2024/03/04 01:19:00;;;;;;;;;;;;;;;16.54;47.79;100744.41;5038814;28;1256;-57
2024/03/04 01:21:25;;;;;;;;;;;;;;;18.07;47.70;100736.88;5039596;28;1981;-57
2024/03/04 01:23:52;;;;;;;;;;;;;;;17.15;49.05;100746.28;5039324;28;1070;-57
2024/03/04 01:26:18;;;;;;;;;;;;;;;16.65;48.69;100734.22;5039069;28;904;-58
2024/03/04 01:28:47;;;;;;;;;;;;;;;16.45;47.79;100740.56;5026038;28;1112;-60
2024/03/04 01:31:14;;;;;;;;;;;;;;;16.33;47.28;100741.63;5038770;28;1210;-57
2024/03/04 01:33:41;;;;;;;;;;;;;;;17.06;48.50;100746.03;5039162;28;1039;-57
2024/03/04 01:36:07;;;;;;;;;;;;;;;17.11;48.72;100753.47;5039073;28;1047;-56
2024/03/04 01:38:32;;;;;;;;;;;;;;;16.56;48.51;100753.19;5030824;28;1095;-58
2024/03/04 01:40:58;;;;;;;;;;;;;;;16.33;47.89;100751.81;5019136;28;1914;-58
2024/03/04 01:43:23;;;;;;;;;;;;;;;16.68;47.87;100744.69;5025183;28;1087;-58
2024/03/04 01:45:49;;;;;;;;;;;;;;;17.99;47.70;100742.97;5039335;28;1210;-59
2024/03/04 01:48:14;;;;;;;;;;;;;;;16.84;48.95;100754.53;5038763;28;1059;-58
2024/03/04 01:50:41;;;;;;;;;;;;;;;16.55;48.08;100751.53;5038568;28;987;-59
2024/03/04 01:53:06;;;;;;;;;;;;;;;16.26;48.23;100749.31;5037631;28;1068;-58
2024/03/04 01:55:58;;;;;;;;;;;;;;;17.92;47.93;100746.03;5025174;28;1091;-60
2024/03/04 01:58:24;;;;;;;;;;;;;;;16.99;49.09;100745.50;5016974;28;2044;-58
2024/03/04 02:00:49;;;;;;;;;;;;;;;16.60;48.39;100749.59;5053129;28;1897;-59
2024/03/04 02:03:15;;;;;;;;;;;;;;;16.41;47.70;100746.59;5037704;28;1096;-58
2024/03/04 02:05:41;;;;;;;;;;;;;;;16.98;48.48;100754.84;5070303;28;1133;-58
2024/03/04 02:08:06;;;;;;;;;;;;;;;17.84;47.76;100749.34;5038654;28;1157;-59
2024/03/04 02:10:32;;;;;;;;;;;;;;;16.82;48.93;100753.19;5024668;28;1050;-59
2024/03/04 02:12:57;;;;;;;;;;;;;;;16.46;48.19;100762.22;5038131;28;1122;-59
2024/03/04 02:15:23;;;;;;;;;;;;;;;16.57;48.61;100754.84;5035180;28;1140;-58
2024/03/04 02:17:49;;;;;;;;;;;;;;;17.63;48.21;100754.13;5027216;28;1068;-59
2024/03/04 02:20:15;;;;;;;;;;;;;;;16.76;48.68;100753.19;5035682;28;1990;-58
2024/03/04 02:22:41;;;;;;;;;;;;;;;16.48;47.97;100749.06;5027270;28;1158;-58
2024/03/04 02:25:07;;;;;;;;;;;;;;;16.23;47.50;100745.19;5035925;28;1119;-58
2024/03/04 02:27:35;;;;;;;;;;;;;;;17.04;48.58;100745.50;5037897;28;1079;-58
2024/03/04 02:30:04;;;;;;;;;;;;;;;17.89;47.73;100743.00;5035452;28;1143;-58
2024/03/04 02:32:29;;;;;;;;;;;;;;;16.84;48.94;100748.22;5018751;28;1088;-57
2024/03/04 02:34:55;;;;;;;;;;;;;;;16.41;48.53;100752.09;5034816;28;1048;-58
2024/03/04 02:37:21;;;;;;;;;;;;;;;16.36;47.47;100743.84;5030927;28;1418;-57
2024/03/04 02:39:46;;;;;;;;;;;;;;;16.53;48.21;100748.25;5037449;28;1902;-57
2024/03/04 02:42:12;;;;;;;;;;;;;;;18.03;47.68;100746.78;5036839;28;1024;-58
2024/03/04 02:44:37;;;;;;;;;;;;;;;16.84;48.97;100748.22;5037724;28;1106;-57
2024/03/04 02:47:03;;;;;;;;;;;;;;;16.54;48.48;100750.72;5037554;28;1063;-57
2024/03/04 02:49:28;;;;;;;;;;;;;;;16.29;47.61;100757.00;5034324;28;1166;-58
2024/03/04 02:51:56;;;;;;;;;;;;;;;16.60;47.96;100748.78;5029271;28;1184;-58
2024/03/04 02:54:22;;;;;;;;;;;;;;;18.10;47.33;100750.06;5037144;28;1092;-58
2024/03/04 02:56:47;;;;;;;;;;;;;;;17.00;48.96;100752.66;5037616;28;1237;-59
2024/03/04 02:59:13;;;;;;;;;;;;;;;16.59;48.46;100756.22;5037290;28;1051;-57
2024/03/04 03:01:39;;;;;;;;;;;;;;;18.01;47.82;100765.53;5036717;28;1918;-57
2024/03/04 03:04:04;;;;;;;;;;;;;;;16.98;48.94;100763.06;5032635;28;1179;-58
2024/03/04 03:06:30;;;;;;;;;;;;;;;16.63;48.35;100764.72;5027849;28;1122;-58
2024/03/04 03:08:56;;;;;;;;;;;;;;;16.49;47.37;100763.59;5036865;28;1694;-58
2024/03/04 03:11:22;;;;;;;;;;;;;;;17.62;48.38;100766.22;5036857;28;1134;-57
2024/03/04 03:13:48;;;;;;;;;;;;;;;17.19;49.08;100776.78;5037006;28;1156;-58
2024/03/04 03:16:16;;;;;;;;;;;;;;;16.73;48.62;100766.63;5037150;28;1266;-58
2024/03/04 03:18:42;;;;;;;;;;;;;;;16.47;47.55;100774.06;5037141;28;1079;-58
2024/03/04 03:21:08;;;;;;;;;;;;;;;17.44;48.30;100775.91;5026377;28;1972;-58
2024/03/04 03:23:35;;;;;;;;;;;;;;;16.95;48.86;100779.31;5034775;28;1063;-58
2024/03/04 03:26:01;;;;;;;;;;;;;;;16.54;48.14;100777.34;5036912;28;1209;-56
2024/03/04 03:28:27;;;;;;;;;;;;;;;16.97;48.71;100772.44;5036769;28;1166;-56
2024/03/04 03:30:53;;;;;;;;;;;;;;;17.68;48.02;100770.59;5026364;28;1043;-57
2024/03/04 03:33:19;;;;;;;;;;;;;;;16.74;48.77;100771.84;5034402;28;1147;-56
2024/03/04 03:35:44;;;;;;;;;;;;;;;16.52;48.04;100774.88;5026222;28;1080;-57
2024/03/04 03:38:10;;;;;;;;;;;;;;;16.40;47.05;100772.38;5032695;28;1096;-56
2024/03/04 03:40:36;;;;;;;;;;;;;;;17.61;48.13;100767.31;5036823;28;1905;-57
2024/03/04 03:43:02;;;;;;;;;;;;;;;16.85;48.76;100778.16;5023520;28;1039;-57
2024/03/04 03:45:27;;;;;;;;;;;;;;;16.49;48.35;100782.81;5037240;28;1222;-57
2024/03/04 03:47:53;;;;;;;;;;;;;;;16.41;47.31;100778.69;5037020;28;1024;-57
2024/03/04 03:50:18;;;;;;;;;;;;;;;17.71;47.86;100778.31;5036153;28;1195;-56
2024/03/04 03:52:44;;;;;;;;;;;;;;;16.84;48.66;100781.19;5022824;28;1134;-56
2024/03/04 03:55:09;;;;;;;;;;;;;;;16.46;48.21;100780.63;5036747;28;1070;-56
2024/03/04 03:57:35;;;;;;;;;;;;;;;17.67;48.17;100788.22;5033156;28;1080;-57
2024/03/04 04:00:00;;;;;;;;;;;;;;;16.93;48.82;100785.88;5026546;28;1906;-56
2024/03/04 04:02:26;;;;;;;;;;;;;;;16.77;49.14;100782.31;5027569;28;1134;-57
2024/03/04 04:04:52;;;;;;;;;;;;;;;17.68;48.03;100794.53;5036104;28;1067;-57
2024/03/04 04:07:18;;;;;;;;;;;;;;;16.75;48.88;100795.47;5036413;28;1042;-57
2024/03/04 04:09:44;;;;;;;;;;;;;;;16.49;48.03;100800.09;5026741;28;1040;-57
2024/03/04 04:12:09;;;;;;;;;;;;;;;16.40;47.03;100794.34;5033061;28;1266;-57
2024/03/04 04:14:35;;;;;;;;;;;;;;;17.08;48.01;100800.69;5035127;28;1230;-58
2024/03/04 04:17:00;;;;;;;;;;;;;;;17.96;47.34;100795.81;5035586;28;1227;-56
2024/03/04 04:19:26;;;;;;;;;;;;;;;16.82;48.67;100795.19;5035933;28;1048;-58
2024/03/04 04:21:51;;;;;;;;;;;;;;;16.60;47.97;100803.69;5036333;28;1906;-59
2024/03/04 04:24:17;;;;;;;;;;;;;;;17.64;48.12;100804.44;5021488;28;1126;-55
2024/03/04 04:26:42;;;;;;;;;;;;;;;16.95;48.71;100804.84;5019193;28;1203;-56
2024/03/04 04:29:08;;;;;;;;;;;;;;;16.64;48.13;100798.50;5036862;28;1099;-55
2024/03/04 04:31:34;;;;;;;;;;;;;;;16.41;47.63;100800.63;5036021;28;1126;-56
2024/03/04 04:33:59;;;;;;;;;;;;;;;17.26;48.29;100802.06;5035502;28;969;-56
2024/03/04 04:36:25;;;;;;;;;;;;;;;16.45;48.87;100809.97;5036218;28;1175;-62
2024/03/04 04:38:51;;;;;;;;;;;;;;;17.10;48.60;100810.31;5035275;28;841;-62
2024/03/04 04:41:17;;;;;;;;;;;;;;;17.98;47.41;100804.63;5022576;28;1902;-62
2024/03/04 04:43:42;;;;;;;;;;;;;;;16.96;48.60;100805.66;5033976;28;1345;-60
2024/03/04 04:46:07;;;;;;;;;;;;;;;16.67;47.74;100807.00;5031990;28;1241;-64
2024/03/04 04:48:34;;;;;;;;;;;;;;;17.30;48.29;100808.63;5035303;28;1265;-62
2024/03/04 04:51:00;;;;;;;;;;;;;;;17.23;48.25;100810.84;5038117;28;1297;-65
2024/03/04 04:53:25;;;;;;;;;;;;;;;16.63;48.47;100825.09;5038699;28;1301;-63
2024/03/04 04:55:51;;;;;;;;;;;;;;;16.40;47.47;100816.28;5036332;28;1347;-62
2024/03/04 04:58:20;;;;;;;;;;;;;;;17.68;48.01;100822.84;5035065;28;1353;-62
2024/03/04 05:00:46;;;;;;;;;;;;;;;16.92;48.74;100827.38;5038963;28;1901;-62
2024/03/04 05:03:12;;;;;;;;;;;;;;;16.63;48.03;100827.03;5039267;28;1072;-63
2024/03/04 05:05:37;;;;;;;;;;;;;;;16.41;47.27;100828.94;5036831;28;1304;-61
2024/03/04 05:08:05;;;;;;;;;;;;;;;16.65;47.97;100825.69;5038893;28;1008;-61
2024/03/04 05:10:30;;;;;;;;;;;;;;;17.24;48.02;100820.75;5035261;28;1135;-59
2024/03/04 05:12:56;;;;;;;;;;;;;;;17.56;47.45;100830.59;5031157;28;924;-63
2024/03/04 05:15:21;;;;;;;;;;;;;;;17.20;48.09;100823.22;5038665;28;1142;-63
2024/03/04 05:17:47;;;;;;;;;;;;;;;16.87;48.81;100835.56;5038876;28;1132;-61
2024/03/04 05:20:15;;;;;;;;;;;;;;;16.54;49.54;100832.25;5038668;28;1910;-63
2024/03/04 05:22:42;;;;;;;;;;;;;;;16.42;50.02;100835.22;5039254;28;1075;-63
2024/03/04 05:25:08;;;;;;;;;;;;;;;16.21;50.24;100834.34;5039099;28;1051;-63
2024/03/04 05:27:33;;;;;;;;;;;;;;;16.06;50.57;100837.84;5039217;28;916;-65
2024/03/04 05:29:59;;;;;;;;;;;;;;;15.92;50.82;100837.53;5038853;28;1112;-62
2024/03/04 05:32:25;;;;;;;;;;;;;;;15.76;51.20;100842.09;5039194;28;1171;-63
2024/03/04 05:34:50;;;;;;;;;;;;;;;15.65;51.49;100841.19;5024231;28;1143;-61
2024/03/04 05:37:17;;;;;;;;;;;;;;;15.52;51.72;100849.91;5038874;28;1040;-62
2024/03/04 05:39:49;;;;;;;;;;;;;;;15.49;51.88;100850.44;5038706;28;1102;-63
2024/03/04 05:42:14;;;;;;;;;;;;;;;15.34;51.89;100845.69;5038790;28;1066;-62
2024/03/04 05:44:40;;;;;;;;;;;;;;;15.20;52.40;100842.56;5038899;28;1059;-63
2024/03/04 05:47:06;;;;;;;;;;;;;;;16.38;49.81;100843.19;5035655;28;1221;-63
2024/03/04 05:49:31;;;;;;;;;;;;;;;17.44;47.25;100850.94;5038170;28;1418;-63
2024/03/04 05:51:58;;;;;;;;;;;;;;;16.43;49.37;100854.16;5038316;28;957;-64
2024/03/04 05:54:25;;;;;;;;;;;;;;;15.90;50.85;100857.00;5034932;28;1249;-62
2024/03/04 05:56:50;;;;;;;;;;;;;;;15.72;51.43;100857.41;5032289;28;2584;-59
2024/03/04 05:59:16;;;;;;;;;;;;;;;15.56;51.74;100868.28;5037567;28;1080;-64
2024/03/04 06:01:42;;;;;;;;;;;;;;;15.46;51.94;100867.41;5032241;28;1914;-65
2024/03/04 06:04:08;;;;;;;;;;;;;;;16.93;48.61;100873.78;5032754;28;896;-62
2024/03/04 06:06:33;;;;;;;;;;;;;;;17.13;47.75;100861.16;5038407;28;1055;-64
2024/03/04 06:09:02;;;;;;;;;;;;;;;16.35;49.82;100868.41;5036942;28;1298;-65
2024/03/04 06:11:28;;;;;;;;;;;;;;;16.03;50.59;100876.78;5037507;28;1067;-61
2024/03/04 06:13:53;;;;;;;;;;;;;;;15.76;51.09;100876.91;5023931;28;1039;-61
2024/03/04 06:16:20;;;;;;;;;;;;;;;15.60;51.44;100871.34;5033283;28;916;-61
2024/03/04 06:18:46;;;;;;;;;;;;;;;15.41;52.14;100870.94;5037930;28;1024;-64
2024/03/04 06:21:11;;;;;;;;;;;;;;;16.73;49.01;100868.22;5032025;28;1917;-61
2024/03/04 06:23:37;;;;;;;;;;;;;;;17.60;46.77;100870.19;5038247;28;1135;-60
2024/03/04 06:26:08;;;;;;;;;;;;;;;16.60;48.88;100870.41;5036221;28;2502;-54
2024/03/04 06:28:34;;;;;;;;;;;;;;;16.16;50.23;100870.00;5037631;28;1106;-58
2024/03/04 06:31:00;;;;;;;;;;;;;;;15.80;50.89;100870.66;5028547;28;1067;-58
2024/03/04 06:33:25;;;;;;;;;;;;;;;15.57;51.33;100869.09;5021005;28;1064;-59
2024/03/04 06:35:51;;;;;;;;;;;;;;;15.48;51.77;100868.78;5039429;28;1194;-52
2024/03/04 06:38:17;;;;;;;;;;;;;;;17.04;48.28;100869.13;5037651;28;1071;-58
2024/03/04 06:40:43;;;;;;;;;;;;;;;17.22;47.39;100858.66;5034091;28;1983;-57
2024/03/04 06:43:08;;;;;;;;;;;;;;;16.33;49.45;100867.06;5037787;28;1078;-60
2024/03/04 06:45:36;;;;;;;;;;;;;;;15.94;50.74;100865.53;5037745;28;995;-58
2024/03/04 06:48:02;;;;;;;;;;;;;;;15.80;51.06;100862.44;5037917;28;1035;-58
2024/03/04 06:50:28;;;;;;;;;;;;;;;15.56;51.49;100867.47;5037446;28;1115;-57
2024/03/04 06:52:54;;;;;;;;;;;;;;;15.68;51.35;100864.53;5037189;28;980;-59
2024/03/04 06:55:20;;;;;;;;;;;;;;;17.20;47.84;100866.38;5036880;28;2299;-59
2024/03/04 06:57:46;;;;;;;;;;;;;;;17.24;47.48;100857.28;5037726;28;1118;-55
2024/03/04 07:00:12;;;;;;;;;;;;;;;16.30;49.65;100865.66;5035865;28;1890;-56
2024/03/04 07:02:37;;;;;;;;;;;;;;;16.05;50.28;100869.97;5036679;28;1446;-57
2024/03/04 07:05:03;;;;;;;;;;;;;;;15.80;50.81;100864.38;5036806;28;900;-55
2024/03/04 07:07:29;;;;;;;;;;;;;;;15.60;51.40;100862.28;5037422;28;1107;-57
2024/03/04 07:09:54;;;;;;;;;;;;;;;16.57;49.14;100859.16;5037001;28;1056;-56
2024/03/04 07:12:19;;;;;;;;;;;;;;;17.65;46.28;100856.41;5036576;28;1099;-56
2024/03/04 07:14:45;;;;;;;;;;;;;;;16.62;48.77;100861.91;5036858;28;1143;-60
2024/03/04 07:17:10;;;;;;;;;;;;;;;16.13;50.01;100859.56;5037196;28;850;-57
2024/03/04 07:19:36;;;;;;;;;;;;;;;15.89;50.71;100860.84;5023706;28;1151;-54
2024/03/04 07:22:03;;;;;;;;;;;;;;;15.72;51.05;100866.50;5036980;28;1973;-55
2024/03/04 07:24:28;;;;;;;;;;;;;;;15.65;51.51;100871.34;5037022;28;1068;-56
2024/03/04 07:26:54;;;;;;;;;;;;;;;16.36;49.74;100877.50;5036753;28;2868;-53
2024/03/04 07:29:19;;;;;;;;;;;;;;;17.53;46.82;100858.63;5036571;28;881;-56
2024/03/04 07:31:46;;;;;;;;;;;;;;;16.62;48.69;100858.31;5036912;28;1119;-57
2024/03/04 07:34:11;;;;;;;;;;;;;;;16.11;50.21;100867.25;5036917;28;1092;-52
2024/03/04 07:36:37;;;;;;;;;;;;;;;15.86;50.90;100863.28;5033118;28;1222;-55
2024/03/04 07:39:03;;;;;;;;;;;;;;;15.64;51.50;100858.75;5027062;28;1064;-50
2024/03/04 07:41:29;;;;;;;;;;;;;;;15.76;51.37;100855.78;5035852;28;1984;-56
2024/03/04 07:43:55;;;;;;;;;;;;;;;17.32;47.27;100853.19;5036777;28;988;-57
2024/03/04 07:46:21;;;;;;;;;;;;;;;16.90;48.22;100868.00;5036425;28;1051;-56
2024/03/04 07:48:47;;;;;;;;;;;;;;;16.22;49.87;100875.22;5036611;28;1206;-56
2024/03/04 07:51:12;;;;;;;;;;;;;;;15.91;50.74;100877.84;5036081;28;1458;-55
2024/03/04 07:53:38;;;;;;;;;;;;;;;15.77;51.14;100884.03;5026434;28;889;-58
2024/03/04 07:56:03;;;;;;;;;;;;;;;15.63;51.50;100873.56;5033044;28;2373;-57
2024/03/04 07:58:29;;;;;;;;;;;;;;;16.53;49.25;100877.25;5036190;28;1116;-56
2024/03/04 08:00:54;;;;;;;;;;;;;;;17.57;46.54;100881.72;5035979;28;1909;-55
2024/03/04 08:03:20;;;;;;;;;;;;;;;16.53;49.16;100888.22;5026603;28;1191;-57
2024/03/04 08:05:47;;;;;;;;;;;;;;;16.08;50.28;100885.88;5035069;28;1243;-57
2024/03/04 08:08:12;;;;;;;;;;;;;;;15.90;50.74;100889.09;5036284;28;1039;-57
2024/03/04 08:10:38;;;;;;;;;;;;;;;15.67;51.41;100891.13;5035871;28;1155;-56
2024/03/04 08:13:04;;;;;;;;;;;;;;;15.75;51.08;100881.56;5036170;28;1081;-60
2024/03/04 08:15:30;;;;;;;;;;;;;;;17.28;47.41;100882.31;5035604;28;1016;-59
2024/03/04 08:17:55;;;;;;;;;;;;;;;17.10;47.56;100875.44;5036142;28;1000;-56
2024/03/04 08:20:21;;;;;;;;;;;;;;;16.36;49.47;100881.03;5036244;28;1906;-56
2024/03/04 08:22:49;;;;;;;;;;;;;;;16.04;50.52;100873.78;5035622;28;1072;-56
2024/03/04 08:25:16;;;;;;;;;;;;;;;15.79;51.04;100873.63;5034593;28;1969;-49
2024/03/04 08:27:42;;;;;;;;;;;;;;;15.66;51.15;100864.78;5026673;28;1046;-50
2024/03/04 08:30:09;;;;;;;;;;;;;;;16.75;48.71;100866.84;5035614;28;1086;-51
2024/03/04 08:32:34;;;;;;;;;;;;;;;17.49;46.56;100863.88;5035640;28;1027;-50
2024/03/04 08:35:00;;;;;;;;;;;;;;;16.41;49.13;100863.75;5033607;28;1047;-50
2024/03/04 08:37:27;;;;;;;;;;;;;;;16.14;50.03;100861.22;5026771;28;1114;-49
2024/03/04 08:39:52;;;;;;;;;;;;;;;15.83;50.61;100867.38;5035355;28;1063;-46
2024/03/04 08:42:18;;;;;;;;;;;;;;;15.70;51.27;100868.66;5035581;28;1126;-47
2024/03/04 08:44:43;;;;;;;;;;;;;;;15.53;51.52;100865.28;5036313;28;1011;-49
2024/03/04 08:47:09;;;;;;;;;;;;;;;17.02;48.02;100871.31;5035923;28;1004;-48
2024/03/04 08:49:35;;;;;;;;;;;;;;;17.35;46.99;100858.13;5035634;28;1140;-49
2024/03/04 08:52:01;;;;;;;;;;;;;;;16.43;49.25;100870.63;5035248;28;1051;-49
2024/03/04 08:54:29;;;;;;;;;;;;;;;16.01;50.23;100862.53;5035315;28;1108;-51
2024/03/04 08:56:54;;;;;;;;;;;;;;;15.82;51.05;100862.16;5031746;28;2663;-49
2024/03/04 08:59:20;;;;;;;;;;;;;;;15.72;51.25;100868.38;5035547;28;1115;-48
2024/03/04 09:01:45;;;;;;;;;;;;;;;16.56;49.47;100868.47;5035415;28;1964;-47
2024/03/04 09:04:11;;;;;;;;;;;;;;;17.69;46.40;100865.75;5035681;28;1071;-48
2024/03/04 09:06:36;;;;;;;;;;;;;;;16.68;48.68;100871.81;5035743;28;1082;-49
2024/03/04 09:09:02;;;;;;;;;;;;;;;16.22;49.84;100874.41;5035534;28;1090;-47
2024/03/04 09:11:27;;;;;;;;;;;;;;;16.00;50.54;100875.41;5035634;28;1124;-48
2024/03/04 09:13:55;;;;;;;;;;;;;;;15.76;51.31;100879.66;5035501;28;992;-50
2024/03/04 09:16:21;;;;;;;;;;;;;;;15.63;51.45;100879.03;5028794;28;1032;-50
2024/03/04 09:18:46;;;;;;;;;;;;;;;17.04;47.96;100871.88;5035480;28;988;-46
2024/03/04 09:21:12;;;;;;;;;;;;;;;17.57;46.61;100871.56;5035355;28;1913;-49
2024/03/04 09:23:38;;;;;;;;;;;;;;;16.57;49.22;100865.44;5034243;28;1110;-46
2024/03/04 09:26:07;;;;;;;;;;;;;;;16.08;50.49;100874.91;5035256;28;2486;-50
2024/03/04 09:28:32;;;;;;;;;;;;;;;15.88;50.84;100869.34;5034893;28;1134;-50
2024/03/04 09:30:58;;;;;;;;;;;;;;;15.78;51.11;100858.28;5024856;28;1043;-45
2024/03/04 09:33:24;;;;;;;;;;;;;;;15.55;51.78;100863.91;5033671;28;1139;-52
2024/03/04 09:35:50;;;;;;;;;;;;;;;16.19;50.33;100858.50;5038928;28;1419;-47
2024/03/04 09:38:15;;;;;;;;;;;;;;;17.47;47.11;100866.06;5036808;28;1035;-51
2024/03/04 09:40:43;;;;;;;;;;;;;;;16.75;48.69;100866.84;5038777;28;1966;-50
2024/03/04 09:43:09;;;;;;;;;;;;;;;16.21;49.96;100857.13;5038783;28;1118;-45
2024/03/04 09:45:35;;;;;;;;;;;;;;;15.88;50.87;100869.34;5071028;28;1108;-44
2024/03/04 09:48:00;;;;;;;;;;;;;;;15.72;51.36;100866.50;5034331;28;1051;-48
2024/03/04 09:50:26;;;;;;;;;;;;;;;15.72;51.36;100854.69;5031590;28;1124;-50
2024/03/04 09:52:54;;;;;;;;;;;;;;;17.27;47.63;100847.69;5031590;28;1413;-49
2024/03/04 09:55:19;;;;;;;;;;;;;;;17.37;47.08;100844.91;5028989;28;2630;-49
2024/03/04 09:57:45;;;;;;;;;;;;;;;16.53;49.50;100841.56;5027512;28;1323;-51
2024/03/04 10:00:14;;;;;;;;;;;;;;;16.11;50.42;100842.56;5024453;28;1941;-47
2024/03/04 10:02:43;;;;;;;;;;;;;;;15.93;50.68;100835.63;5036379;28;1099;-52
2024/03/04 10:05:12;;;;;;;;;;;;;;;15.71;51.34;100831.94;5037483;28;1344;-47
2024/03/04 10:07:37;;;;;;;;;;;;;;;15.54;51.72;100836.75;5037635;28;1336;-46
2024/03/04 10:10:03;;;;;;;;;;;;;;;16.48;49.55;100831.41;5038381;28;1013;-47
2024/03/04 10:12:29;;;;;;;;;;;;;;;17.62;46.57;100805.53;5038303;28;1035;-44
2024/03/04 10:15:04;;;;;;;;;;;;;;;16.68;48.76;100814.13;5038124;28;1132;-46
2024/03/04 10:17:30;;;;;;;;;;;;;;;16.12;50.54;100817.59;5037650;28;1032;-47
2024/03/04 10:20:02;;;;;;;;;;;;;;;15.88;50.87;100817.25;5038226;28;1144;-46
2024/03/04 10:22:32;;;;;;;;;;;;;;;15.65;51.65;100824.75;5035627;28;1036;-46
2024/03/04 10:25:05;;;;;;;;;;;;;;;15.51;51.97;100824.41;5031929;28;1491;-47
2024/03/04 10:27:34;;;;;;;;;;;;;;;16.87;48.67;100814.44;5032318;28;2773;-44
2024/03/04 10:30:15;;;;;;;;;;;;;;;17.44;47.02;100811.63;5037565;28;1015;-46
2024/03/04 10:32:47;;;;;;;;;;;;;;;16.45;49.40;100806.41;5038349;28;1131;-46
2024/03/04 10:35:13;;;;;;;;;;;;;;;16.11;50.48;100802.22;5037851;28;1122;-47
2024/03/04 10:37:39;;;;;;;;;;;;;;;15.81;51.32;100808.41;5037553;28;1147;-47
2024/03/04 10:40:05;;;;;;;;;;;;;;;15.68;51.59;100806.97;5037684;28;1967;-50
2024/03/04 10:42:30;;;;;;;;;;;;;;;16.49;49.72;100802.84;5036178;28;898;-42
2024/03/04 10:44:56;;;;;;;;;;;;;;;17.60;46.78;100798.69;5024733;28;1111;-45
2024/03/04 10:47:22;;;;;;;;;;;;;;;16.51;49.26;100797.09;5037467;28;1198;-47
2024/03/04 10:49:48;;;;;;;;;;;;;;;16.16;50.36;100798.66;5037168;28;1086;-45
2024/03/04 10:52:14;;;;;;;;;;;;;;;15.88;50.91;100796.13;5037907;28;1106;-45
2024/03/04 10:54:42;;;;;;;;;;;;;;;15.65;51.74;100794.59;5038564;28;1419;-48
2024/03/04 10:57:11;;;;;;;;;;;;;;;15.56;51.91;100786.06;5029837;28;1851;-52
2024/03/04 10:59:38;;;;;;;;;;;;;;;17.00;48.59;100788.34;5036303;28;1028;-46
2024/03/04 11:02:08;;;;;;;;;;;;;;;17.34;47.13;100792.44;5035835;28;1914;-45
2024/03/04 11:04:33;;;;;;;;;;;;;;;16.40;49.67;100797.06;5037407;28;1028;-49
2024/03/04 11:06:59;;;;;;;;;;;;;;;16.04;50.82;100788.75;5034943;28;1040;-47
2024/03/04 11:09:24;;;;;;;;;;;;;;;15.79;51.14;100789.50;5017994;28;1013;-50
2024/03/04 11:11:51;;;;;;;;;;;;;;;15.69;51.65;100779.28;5035894;28;1108;-49
2024/03/04 11:14:17;;;;;;;;;;;;;;;16.33;50.20;100793.78;5068962;28;1016;-48
2024/03/04 11:16:43;;;;;;;;;;;;;;;17.58;46.66;100787.94;5036539;28;1118;-47
2024/03/04 11:19:24;;;;;;;;;;;;;;;16.83;48.73;100791.38;5035525;28;1508;-48
2024/03/04 11:21:49;;;;;;;;;;;;;;;16.23;50.02;100778.13;5035476;28;1966;-46
2024/03/04 11:24:16;;;;;;;;;;;;;;;15.96;50.71;100783.78;5035752;28;1508;-48
2024/03/04 11:26:41;;;;;;;;;;;;;;;15.85;50.91;100773.88;5031438;28;2719;-46
2024/03/04 11:29:07;;;;;;;;;;;;;;;15.65;51.42;100758.16;5035286;28;1020;-44
2024/03/04 11:31:33;;;;;;;;;;;;;;;16.63;49.56;100770.19;5028464;28;1116;-49
2024/03/04 11:33:59;;;;;;;;;;;;;;;17.58;46.83;100763.19;5017610;28;1417;-48
2024/03/04 11:36:25;;;;;;;;;;;;;;;16.53;49.54;100759.22;5036158;28;1119;-48
2024/03/04 11:38:50;;;;;;;;;;;;;;;16.03;50.52;100762.44;5035588;28;1167;-48
2024/03/04 11:41:36;;;;;;;;;;;;;;;15.81;51.34;100748.09;5035128;28;1909;-50
2024/03/04 11:44:01;;;;;;;;;;;;;;;15.57;51.85;100748.50;5036824;28;1061;-50
2024/03/04 11:46:27;;;;;;;;;;;;;;;15.47;51.87;100753.97;5035432;28;1238;-48
2024/03/04 11:48:56;;;;;;;;;;;;;;;16.58;49.32;100745.50;5036859;28;1055;-49
2024/03/04 11:51:40;;;;;;;;;;;;;;;17.64;46.53;100744.75;5038627;28;1083;-51
2024/03/04 11:54:05;;;;;;;;;;;;;;;16.52;49.41;100746.59;5034624;28;1015;-46
2024/03/04 11:56:31;;;;;;;;;;;;;;;16.00;50.56;100752.00;5055487;28;2279;-49
2024/03/04 11:58:57;;;;;;;;;;;;;;;15.87;51.01;100752.50;5033939;28;897;-49
2024/03/04 12:01:22;;;;;;;;;;;;;;;15.76;51.41;100746.13;5035957;28;1897;-49
2024/03/04 12:03:52;;;;;;;;;;;;;;;15.53;51.86;100741.94;5036387;28;1104;-49
2024/03/04 12:06:18;;;;;;;;;;;;;;;16.67;49.09;100746.59;5035635;28;1059;-52
2024/03/04 12:08:43;;;;;;;;;;;;;;;17.69;46.50;100742.00;5055356;28;1083;-50
2024/03/04 12:11:09;;;;;;;;;;;;;;;16.69;48.80;100740.81;5023052;28;1131;-50
2024/03/04 12:13:34;;;;;;;;;;;;;;;16.19;50.13;100735.84;5035849;28;1078;-50
2024/03/04 12:16:00;;;;;;;;;;;;;;;15.89;50.76;100733.84;5036090;28;1082;-49
2024/03/04 12:18:28;;;;;;;;;;;;;;;15.72;51.18;100726.66;5018164;28;892;-47
2024/03/04 12:20:54;;;;;;;;;;;;;;;15.56;51.65;100722.22;5029800;28;1975;-49
2024/03/04 12:23:20;;;;;;;;;;;;;;;16.80;48.91;100719.69;5035792;28;1329;-51
2024/03/04 12:25:48;;;;;;;;;;;;;;;17.74;46.36;100727.38;5032909;28;2635;-51
2024/03/04 12:28:19;;;;;;;;;;;;;;;16.58;49.07;100720.81;5034689;28;1174;-50
2024/03/04 12:30:45;;;;;;;;;;;;;;;16.11;50.61;100713.63;5034639;28;1194;-50
2024/03/04 12:33:11;;;;;;;;;;;;;;;15.90;50.86;100710.84;5035391;28;1178;-50
2024/03/04 12:35:36;;;;;;;;;;;;;;;15.72;51.50;100710.22;5035938;28;1194;-52
2024/03/04 12:38:02;;;;;;;;;;;;;;;15.62;51.72;100704.69;5035782;28;1052;-53
2024/03/04 12:40:28;;;;;;;;;;;;;;;16.88;48.62;100713.63;5035648;28;1905;-49
2024/03/04 12:42:54;;;;;;;;;;;;;;;17.65;46.60;100696.91;5035335;28;1035;-55